Time;durP1;ratioP1;P1;durP2;ratioP2;P2;SDS_P1;SDS_P2;PMS_P1;PMS_P2;Temp;Humidity;BMP_temperature;BMP_pressure;BME280_temperature;BME280_humidity;BME280_pressure;Samples;Min_cycle;Max_cycle;Signal;HPM_P1;HPM_P2
2023/01/10 00:01:23;;;;;;;;;;;;;;;4.95;99.29;97404.55;106682;1256;22556;-73
2023/01/10 00:03:50;;;;;;;;;;;;;;;4.93;99.32;97404.08;106699;1280;23165;-72
2023/01/10 00:06:17;;;;;;;;;;;;;;;4.92;99.32;97407.92;106582;1280;124640;-72
2023/01/10 00:08:43;;;;;;;;;;;;;;;4.90;99.36;97409.19;106639;1281;22617;-72
2023/01/10 00:13:56;;;;;;;;;;;;;;;4.88;99.49;97414.30;106611;1281;22742;-72
2023/01/10 00:16:23;;;;;;;;;;;;;;;4.87;99.63;97422.98;106534;1280;125851;-72
2023/01/10 00:18:49;;;;;;;;;;;;;;;4.87;99.50;97421.66;106608;1280;25407;-72
2023/01/10 00:21:17;;;;;;;;;;;;;;;4.86;99.63;97426.51;106635;1281;22539;-75
2023/01/10 00:23:43;;;;;;;;;;;;;;;4.88;99.97;97428.48;106532;1281;124671;-73
2023/01/10 00:26:11;;;;;;;;;;;;;;;4.89;99.73;97431.17;106654;1277;25288;-73
2023/01/10 00:28:38;;;;;;;;;;;;;;;4.89;99.84;97426.64;106640;1281;124311;-73
2023/01/10 00:31:05;;;;;;;;;;;;;;;4.91;100.00;97429.14;106615;1281;22534;-73
2023/01/10 00:33:33;;;;;;;;;;;;;;;4.93;99.98;97435.87;106616;1270;24204;-73
2023/01/10 00:36:00;;;;;;;;;;;;;;;4.94;99.96;97436.98;106519;1277;125150;-73
2023/01/10 00:38:27;;;;;;;;;;;;;;;4.96;99.88;97439.30;106497;1281;22536;-73
2023/01/10 00:40:54;;;;;;;;;;;;;;;4.96;99.97;97442.45;106671;1277;125521;-73
2023/01/10 00:46:07;;;;;;;;;;;;;;;5.00;99.87;97441.14;106902;1273;124853;-74
2023/01/10 00:48:34;;;;;;;;;;;;;;;5.01;99.93;97446.81;106692;1280;22607;-73
2023/01/10 00:51:01;;;;;;;;;;;;;;;5.00;99.61;97455.38;106567;1280;22724;-73
2023/01/10 00:53:28;;;;;;;;;;;;;;;5.00;99.70;97467.27;106720;1261;124114;-73
2023/01/10 00:55:55;;;;;;;;;;;;;;;5.00;99.67;97465.63;106696;1280;22590;-73
2023/01/10 00:58:22;;;;;;;;;;;;;;;5.01;99.78;97468.06;106632;1280;124249;-73
2023/01/10 01:00:49;;;;;;;;;;;;;;;5.01;99.75;97469.48;106654;1280;24080;-73
2023/01/10 01:03:17;;;;;;;;;;;;;;;5.02;99.82;97470.10;106630;1262;24507;-73
2023/01/10 01:05:44;;;;;;;;;;;;;;;5.01;99.71;97475.20;106560;1281;124776;-73
2023/01/10 01:08:12;;;;;;;;;;;;;;;5.01;99.66;97473.46;106630;1281;22512;-73
2023/01/10 01:10:39;;;;;;;;;;;;;;;5.00;99.72;97470.86;106514;1281;124765;-73
2023/01/10 01:13:16;;;;;;;;;;;;;;;5.00;99.76;97468.21;106652;1261;25201;-73
2023/01/10 01:15:43;;;;;;;;;;;;;;;4.98;99.80;97473.26;106890;1280;22523;-73
2023/01/10 01:18:11;;;;;;;;;;;;;;;4.97;99.87;97475.61;106651;1280;125086;-73
2023/01/10 01:20:39;;;;;;;;;;;;;;;4.96;99.77;97474.83;106705;1280;22511;-73
2023/01/10 01:23:06;;;;;;;;;;;;;;;4.96;99.91;97476.21;106506;1264;124760;-73
2023/01/10 01:25:33;;;;;;;;;;;;;;;4.93;99.84;97476.70;107104;1275;23337;-74
2023/01/10 01:27:59;;;;;;;;;;;;;;;4.92;99.69;97479.87;106542;1281;125291;-73
2023/01/10 01:30:26;;;;;;;;;;;;;;;4.91;99.81;97481.67;106620;1274;25247;-73
2023/01/10 01:32:53;;;;;;;;;;;;;;;4.90;99.92;97484.51;107179;1260;26625;-73
2023/01/10 01:35:20;;;;;;;;;;;;;;;4.89;99.83;97486.64;106533;1280;124278;-73
2023/01/10 01:37:47;;;;;;;;;;;;;;;4.87;99.67;97484.10;106673;1280;22607;-72
2023/01/10 01:40:15;;;;;;;;;;;;;;;4.84;99.51;97485.20;106444;1272;225047;-73
2023/01/10 01:42:42;;;;;;;;;;;;;;;4.80;99.45;97481.62;106981;1272;24250;-73
2023/01/10 01:45:08;;;;;;;;;;;;;;;4.76;99.56;97486.65;106605;1281;22524;-73
2023/01/10 01:47:43;;;;;;;;;;;;;;;4.73;99.66;97487.86;106512;1281;124729;-73
2023/01/10 01:50:15;;;;;;;;;;;;;;;4.69;99.65;97492.82;106715;1274;22690;-73
2023/01/10 01:52:42;;;;;;;;;;;;;;;4.64;99.89;97488.66;106530;1281;124749;-73
2023/01/10 01:55:09;;;;;;;;;;;;;;;4.62;100.00;97490.23;106656;1280;22892;-73
2023/01/10 01:57:36;;;;;;;;;;;;;;;4.59;99.96;97494.15;106887;1272;22544;-73
2023/01/10 02:00:03;;;;;;;;;;;;;;;4.58;100.00;97494.16;106827;1269;124205;-73
2023/01/10 02:02:41;;;;;;;;;;;;;;;4.55;100.00;97491.66;106845;1280;25306;-73
2023/01/10 02:05:09;;;;;;;;;;;;;;;4.52;100.00;97498.49;106489;1262;124332;-73
2023/01/10 02:07:37;;;;;;;;;;;;;;;4.51;100.00;97497.81;106583;1275;22643;-73
2023/01/10 02:10:09;;;;;;;;;;;;;;;4.49;100.00;97500.34;106572;1280;124504;-73
2023/01/10 02:12:36;;;;;;;;;;;;;;;4.47;100.00;97500.08;106638;1280;22511;-72
2023/01/10 02:15:03;;;;;;;;;;;;;;;4.45;100.00;97503.30;106612;1280;22803;-73
2023/01/10 02:17:30;;;;;;;;;;;;;;;4.43;100.00;97500.96;106585;1280;124823;-73
2023/01/10 02:20:02;;;;;;;;;;;;;;;4.41;100.00;97506.46;106627;1280;25277;-73
2023/01/10 02:22:47;;;;;;;;;;;;;;;4.40;100.00;97508.09;106552;1280;124913;-73
2023/01/10 02:25:20;;;;;;;;;;;;;;;4.38;100.00;97505.78;106658;1263;22627;-73
2023/01/10 02:27:56;;;;;;;;;;;;;;;4.39;100.00;97507.15;107013;1273;22507;-73
2023/01/10 02:30:31;;;;;;;;;;;;;;;4.39;100.00;97510.97;106596;1280;124078;-73
2023/01/10 02:32:58;;;;;;;;;;;;;;;4.38;100.00;97510.80;106631;1266;22517;-73
2023/01/10 02:35:25;;;;;;;;;;;;;;;4.37;100.00;97511.73;106420;1259;124429;-73
2023/01/10 02:37:56;;;;;;;;;;;;;;;4.36;100.00;97517.05;106658;1280;22624;-73
2023/01/10 02:40:25;;;;;;;;;;;;;;;4.36;100.00;97522.15;106628;1272;124931;-73
2023/01/10 02:43:11;;;;;;;;;;;;;;;4.36;100.00;97521.83;106789;1280;22898;-73
2023/01/10 02:45:45;;;;;;;;;;;;;;;4.34;100.00;97523.96;106524;1262;24232;-75
2023/01/10 02:48:12;;;;;;;;;;;;;;;4.34;100.00;97525.72;106412;1281;125875;-73
2023/01/10 02:50:44;;;;;;;;;;;;;;;4.32;100.00;97523.66;106529;1281;22507;-72
2023/01/10 02:53:18;;;;;;;;;;;;;;;4.31;100.00;97528.40;106407;1281;124538;-73
2023/01/10 02:55:44;;;;;;;;;;;;;;;4.30;100.00;97528.75;106578;1272;22543;-72
2023/01/10 02:58:14;;;;;;;;;;;;;;;4.29;100.00;97536.48;106473;1280;124483;-73
2023/01/10 03:00:50;;;;;;;;;;;;;;;4.28;100.00;97535.58;107116;1280;25000;-73
2023/01/10 03:03:26;;;;;;;;;;;;;;;4.28;100.00;97538.60;106563;1272;22520;-72
2023/01/10 03:05:59;;;;;;;;;;;;;;;4.28;100.00;97540.80;106379;1261;124253;-72
2023/01/10 03:08:31;;;;;;;;;;;;;;;4.27;100.00;97543.64;106472;1282;22598;-73
2023/01/10 03:11:02;;;;;;;;;;;;;;;4.26;100.00;97547.22;106443;1282;124349;-72
2023/01/10 03:13:49;;;;;;;;;;;;;;;4.25;100.00;97545.65;106577;1282;22603;-73
2023/01/10 03:16:18;;;;;;;;;;;;;;;4.25;100.00;97549.68;106546;1262;124932;-73
2023/01/10 03:18:47;;;;;;;;;;;;;;;4.23;100.00;97553.66;106672;1280;23104;-72
2023/01/10 03:21:17;;;;;;;;;;;;;;;4.21;100.00;97553.83;108109;1273;24593;-73
2023/01/10 03:23:44;;;;;;;;;;;;;;;4.20;100.00;97557.90;108013;1272;124378;-74
2023/01/10 03:26:12;;;;;;;;;;;;;;;4.19;100.00;97561.96;106966;1263;22550;-73
2023/01/10 03:28:50;;;;;;;;;;;;;;;4.19;100.00;97566.33;106874;1274;124530;-72
2023/01/10 03:31:20;;;;;;;;;;;;;;;4.18;100.00;97566.83;106476;1275;22707;-72
2023/01/10 03:33:47;;;;;;;;;;;;;;;4.17;100.00;97571.13;106707;1274;22688;-73
2023/01/10 03:36:33;;;;;;;;;;;;;;;4.17;100.00;97576.19;106562;1263;124507;-72
2023/01/10 03:39:12;;;;;;;;;;;;;;;4.15;100.00;97578.34;106695;1277;22516;-72
2023/01/10 03:41:41;;;;;;;;;;;;;;;4.14;100.00;97576.79;106930;1273;125680;-73
2023/01/10 03:47:12;;;;;;;;;;;;;;;4.12;100.00;97589.13;106724;1263;124374;-73
2023/01/10 03:49:40;;;;;;;;;;;;;;;4.11;100.00;97597.52;106587;1274;22517;-73
2023/01/10 03:52:09;;;;;;;;;;;;;;;4.09;100.00;97601.23;107074;1274;126451;-73
2023/01/10 03:54:36;;;;;;;;;;;;;;;4.08;100.00;97608.69;106563;1279;22544;-72
2023/01/10 03:57:04;;;;;;;;;;;;;;;4.08;100.00;97611.69;106672;1280;22498;-72
2023/01/10 03:59:31;;;;;;;;;;;;;;;4.06;100.00;97616.18;106617;1280;124317;-72
2023/01/10 04:01:58;;;;;;;;;;;;;;;4.06;100.00;97620.75;106708;1276;22748;-73
2023/01/10 04:04:25;;;;;;;;;;;;;;;4.04;100.00;97623.86;106947;1275;126252;-72
2023/01/10 04:06:51;;;;;;;;;;;;;;;4.04;100.00;97626.06;106579;1262;22992;-72
2023/01/10 04:09:18;;;;;;;;;;;;;;;4.02;100.00;97629.05;106613;1281;25220;-72
2023/01/10 04:11:45;;;;;;;;;;;;;;;4.00;100.00;97632.86;106515;1281;124277;-72
2023/01/10 04:14:12;;;;;;;;;;;;;;;3.98;100.00;97633.34;106554;1281;22517;-72
2023/01/10 04:16:38;;;;;;;;;;;;;;;3.96;100.00;97641.15;106538;1262;124514;-72
2023/01/10 04:19:05;;;;;;;;;;;;;;;3.94;100.00;97643.08;106806;1273;25303;-73
2023/01/10 04:21:32;;;;;;;;;;;;;;;3.92;100.00;97645.88;106724;1273;22532;-73
2023/01/10 04:23:59;;;;;;;;;;;;;;;3.90;100.00;97645.77;106962;1275;124425;-72
2023/01/10 04:26:25;;;;;;;;;;;;;;;3.88;100.00;97645.20;107740;1263;22573;-73
2023/01/10 04:28:52;;;;;;;;;;;;;;;3.87;100.00;97647.38;106546;1275;124322;-73
2023/01/10 04:31:19;;;;;;;;;;;;;;;3.85;100.00;97650.91;106641;1275;23337;-72
2023/01/10 04:33:46;;;;;;;;;;;;;;;3.84;100.00;97649.05;108232;1274;23860;-73
2023/01/10 04:36:12;;;;;;;;;;;;;;;3.83;100.00;97654.41;107261;1257;124411;-73
2023/01/10 04:38:39;;;;;;;;;;;;;;;3.83;100.00;97658.77;106674;1275;22564;-72
2023/01/10 04:41:06;;;;;;;;;;;;;;;3.81;100.00;97659.89;106565;1277;125640;-73
2023/01/10 04:43:33;;;;;;;;;;;;;;;3.80;100.00;97663.75;106743;1273;22530;-73
2023/01/10 04:45:59;;;;;;;;;;;;;;;3.78;100.00;97666.72;107191;1261;23182;-74
2023/01/10 04:48:26;;;;;;;;;;;;;;;3.77;100.00;97675.67;108466;1262;125294;-73
2023/01/10 04:50:53;;;;;;;;;;;;;;;3.76;100.00;97683.35;108944;1274;22519;-73
2023/01/10 04:53:20;;;;;;;;;;;;;;;3.75;100.00;97688.37;108794;1274;125272;-74
2023/01/10 04:55:47;;;;;;;;;;;;;;;3.75;100.00;97689.20;109502;1274;22548;-73
2023/01/10 04:58:14;;;;;;;;;;;;;;;3.76;99.64;97694.36;106706;1261;124567;-72
2023/01/10 05:00:41;;;;;;;;;;;;;;;3.76;99.64;97695.29;107143;1276;22530;-72
2023/01/10 05:03:07;;;;;;;;;;;;;;;3.76;99.77;97695.23;107163;1273;22908;-73
2023/01/10 05:05:34;;;;;;;;;;;;;;;3.75;99.88;97695.21;106824;1273;124290;-73
2023/01/10 05:08:01;;;;;;;;;;;;;;;3.74;99.97;97700.35;106585;1276;23330;-72
2023/01/10 05:10:28;;;;;;;;;;;;;;;3.73;99.97;97705.16;106502;1281;124390;-72
2023/01/10 05:12:54;;;;;;;;;;;;;;;3.71;100.00;97710.96;106606;1270;25231;-73
2023/01/10 05:15:22;;;;;;;;;;;;;;;3.70;100.00;97715.34;106556;1281;22577;-72
2023/01/10 05:17:50;;;;;;;;;;;;;;;3.68;99.95;97719.20;106552;1262;124411;-73
2023/01/10 05:20:16;;;;;;;;;;;;;;;3.67;99.97;97727.45;106687;1280;22526;-72
2023/01/10 05:22:44;;;;;;;;;;;;;;;3.66;99.89;97735.83;106575;1269;124248;-72
2023/01/10 05:25:11;;;;;;;;;;;;;;;3.65;99.97;97735.46;106676;1273;22511;-73
2023/01/10 05:27:39;;;;;;;;;;;;;;;3.64;100.00;97735.55;106749;1259;22526;-72
2023/01/10 05:30:16;;;;;;;;;;;;;;;3.64;100.00;97743.69;106694;1279;124870;-72
2023/01/10 05:33:04;;;;;;;;;;;;;;;3.62;100.00;97744.19;106376;1279;22617;-72
2023/01/10 05:35:31;;;;;;;;;;;;;;;3.61;100.00;97746.72;106728;1279;124449;-73
2023/01/10 05:37:58;;;;;;;;;;;;;;;3.60;100.00;97753.05;106810;1262;23904;-72
2023/01/10 05:40:25;;;;;;;;;;;;;;;3.59;99.98;97755.38;106525;1280;124634;-72
2023/01/10 05:43:13;;;;;;;;;;;;;;;3.58;100.00;97764.55;106835;1274;24433;-72
2023/01/10 05:45:41;;;;;;;;;;;;;;;3.57;100.00;97769.72;106609;1281;25001;-72
2023/01/10 05:48:11;;;;;;;;;;;;;;;3.55;100.00;97778.44;106443;1261;124864;-72
2023/01/10 05:50:37;;;;;;;;;;;;;;;3.54;100.00;97780.02;106581;1282;25487;-72
2023/01/10 05:53:05;;;;;;;;;;;;;;;3.52;99.98;97783.22;106455;1282;124468;-72
2023/01/10 05:55:33;;;;;;;;;;;;;;;3.49;99.54;97784.97;106556;1282;23274;-72
2023/01/10 05:57:59;;;;;;;;;;;;;;;3.46;99.58;97791.50;106615;1262;25352;-72
2023/01/10 06:00:26;;;;;;;;;;;;;;;3.45;99.65;97793.21;106592;1280;125364;-72
2023/01/10 06:02:54;;;;;;;;;;;;;;;3.42;99.56;97799.31;106613;1280;23076;-72
2023/01/10 06:05:21;;;;;;;;;;;;;;;3.39;99.27;97799.08;106455;1276;124186;-72
2023/01/10 06:07:48;;;;;;;;;;;;;;;3.36;98.93;97805.17;106565;1259;22514;-72
2023/01/10 06:10:15;;;;;;;;;;;;;;;3.33;98.95;97809.54;106403;1281;125305;-72
2023/01/10 06:12:42;;;;;;;;;;;;;;;3.30;98.73;97814.64;106521;1281;22527;-72
2023/01/10 06:15:09;;;;;;;;;;;;;;;3.27;99.11;97816.23;106482;1281;22522;-72
2023/01/10 06:17:35;;;;;;;;;;;;;;;3.26;99.12;97821.49;106404;1281;124171;-72
2023/01/10 06:20:02;;;;;;;;;;;;;;;3.24;99.36;97823.53;106981;1257;22515;-72
2023/01/10 06:22:29;;;;;;;;;;;;;;;3.21;99.26;97824.35;106514;1279;124274;-73
2023/01/10 06:24:56;;;;;;;;;;;;;;;3.19;99.40;97826.77;106719;1273;22680;-72
2023/01/10 06:27:23;;;;;;;;;;;;;;;3.18;99.39;97830.59;106610;1280;22943;-72
2023/01/10 06:29:49;;;;;;;;;;;;;;;3.17;99.54;97837.38;106426;1262;125027;-72
2023/01/10 06:32:16;;;;;;;;;;;;;;;3.16;99.72;97843.09;106509;1281;23168;-74
2023/01/10 06:34:43;;;;;;;;;;;;;;;3.15;99.89;97848.20;106437;1281;124825;-73
2023/01/10 06:37:10;;;;;;;;;;;;;;;3.14;99.88;97851.92;106686;1282;22518;-73
2023/01/10 06:39:38;;;;;;;;;;;;;;;3.12;99.90;97858.14;106572;1263;22518;-73
2023/01/10 06:42:05;;;;;;;;;;;;;;;3.11;99.68;97868.56;106577;1275;124638;-72
2023/01/10 06:44:31;;;;;;;;;;;;;;;3.08;99.35;97872.84;106567;1280;26630;-72
2023/01/10 06:46:58;;;;;;;;;;;;;;;3.06;99.25;97877.98;106482;1280;124648;-75
2023/01/10 06:49:25;;;;;;;;;;;;;;;3.03;99.09;97875.18;106525;1280;22765;-75
2023/01/10 06:51:52;;;;;;;;;;;;;;;3.01;99.20;97880.59;106607;1273;24385;-72
2023/01/10 06:54:18;;;;;;;;;;;;;;;2.99;99.31;97883.58;106393;1281;124568;-73
2023/01/10 06:56:48;;;;;;;;;;;;;;;2.97;99.20;97884.74;106499;1277;24379;-72
2023/01/10 06:59:15;;;;;;;;;;;;;;;2.95;99.34;97888.96;106840;1263;124973;-73
2023/01/10 07:01:42;;;;;;;;;;;;;;;2.95;99.74;97885.66;107420;1278;22531;-72
2023/01/10 07:04:09;;;;;;;;;;;;;;;2.95;99.55;97892.73;106673;1281;124448;-73
2023/01/10 07:06:36;;;;;;;;;;;;;;;2.94;99.82;97890.58;108119;1278;22523;-73
2023/01/10 07:09:05;;;;;;;;;;;;;;;2.94;99.78;97893.77;107092;1259;22267;-73
2023/01/10 07:11:39;;;;;;;;;;;;;;;2.93;99.80;97888.30;106392;1277;124361;-72
2023/01/10 07:14:08;;;;;;;;;;;;;;;2.94;99.63;97887.39;106505;1277;22515;-75
2023/01/10 07:16:36;;;;;;;;;;;;;;;2.93;99.70;97889.96;106587;1274;124488;-73
2023/01/10 07:19:03;;;;;;;;;;;;;;;2.93;99.77;97890.71;106540;1260;22556;-73
2023/01/10 07:21:32;;;;;;;;;;;;;;;2.93;99.93;97892.29;106873;1262;23323;-74
2023/01/10 07:24:01;;;;;;;;;;;;;;;2.99;100.00;97896.11;107237;1276;124406;-73
2023/01/10 07:26:30;;;;;;;;;;;;;;;3.09;100.00;97897.19;106549;1280;22514;-70
2023/01/10 07:29:00;;;;;;;;;;;;;;;3.15;100.00;97901.02;106692;1280;124698;-72
2023/01/10 07:31:28;;;;;;;;;;;;;;;3.16;99.66;97905.48;106945;1265;23151;-73
2023/01/10 07:33:55;;;;;;;;;;;;;;;3.15;99.38;97914.58;106437;1282;22870;-73
2023/01/10 07:36:22;;;;;;;;;;;;;;;3.13;99.16;97917.02;106864;1274;124315;-74
2023/01/10 07:38:49;;;;;;;;;;;;;;;3.13;99.75;97923.27;106759;1281;24295;-73
2023/01/10 07:41:16;;;;;;;;;;;;;;;3.15;99.54;97922.66;106954;1262;124307;-74
2023/01/10 07:43:43;;;;;;;;;;;;;;;3.15;99.69;97921.16;107552;1273;22616;-73
2023/01/10 07:46:11;;;;;;;;;;;;;;;3.16;99.61;97917.43;108106;1272;124980;-74
2023/01/10 07:48:40;;;;;;;;;;;;;;;3.17;99.57;97921.45;106782;1279;22511;-73
2023/01/10 07:51:07;;;;;;;;;;;;;;;3.18;99.73;97923.55;106965;1262;24239;-73
2023/01/10 07:53:34;;;;;;;;;;;;;;;3.19;99.82;97929.06;106377;1281;124969;-73
2023/01/10 07:56:02;;;;;;;;;;;;;;;3.22;100.00;97925.96;106694;1281;24801;-73
2023/01/10 07:58:29;;;;;;;;;;;;;;;3.26;100.00;97924.00;106571;1281;125297;-73
2023/01/10 08:00:59;;;;;;;;;;;;;;;3.30;100.00;97922.24;106724;1280;22656;-73
2023/01/10 08:03:26;;;;;;;;;;;;;;;3.35;100.00;97933.08;107186;1272;25309;-73
2023/01/10 08:06:01;;;;;;;;;;;;;;;3.38;100.00;97933.68;107158;1273;124640;-73
2023/01/10 08:08:28;;;;;;;;;;;;;;;3.42;100.00;97933.88;106966;1273;24313;-73
2023/01/10 08:10:55;;;;;;;;;;;;;;;3.44;100.00;97936.81;106562;1281;124461;-73
2023/01/10 08:13:22;;;;;;;;;;;;;;;3.47;100.00;97944.17;107127;1277;22516;-73
2023/01/10 08:15:50;;;;;;;;;;;;;;;3.48;100.00;97950.64;106696;1275;25294;-73
2023/01/10 08:18:18;;;;;;;;;;;;;;;3.50;100.00;97952.73;106578;1281;125008;-73
2023/01/10 08:20:46;;;;;;;;;;;;;;;3.52;100.00;97953.52;106928;1258;25634;-73
2023/01/10 08:23:13;;;;;;;;;;;;;;;3.53;100.00;97954.39;107086;1278;125192;-73
2023/01/10 08:25:40;;;;;;;;;;;;;;;3.54;100.00;97965.79;106844;1280;22516;-73
2023/01/10 08:28:07;;;;;;;;;;;;;;;3.56;100.00;97974.33;106762;1280;24223;-73
2023/01/10 08:30:34;;;;;;;;;;;;;;;3.55;100.00;97980.94;107415;1259;124323;-74
2023/01/10 08:33:01;;;;;;;;;;;;;;;3.54;100.00;97982.05;106640;1281;22514;-73
2023/01/10 08:35:28;;;;;;;;;;;;;;;3.54;99.98;97986.44;106732;1278;124480;-73
2023/01/10 08:37:58;;;;;;;;;;;;;;;3.52;99.84;97989.75;106715;1281;24258;-73
2023/01/10 08:40:26;;;;;;;;;;;;;;;3.51;99.83;97992.95;107534;1274;125058;-74
2023/01/10 08:43:00;;;;;;;;;;;;;;;3.50;99.83;97991.78;107484;1262;22508;-73
2023/01/10 08:45:26;;;;;;;;;;;;;;;3.50;99.90;97995.52;107676;1275;23912;-73
2023/01/10 08:47:53;;;;;;;;;;;;;;;3.52;99.90;97997.27;106788;1267;124263;-73
2023/01/10 08:50:20;;;;;;;;;;;;;;;3.52;99.89;97998.61;108184;1273;22584;-73
2023/01/10 08:52:47;;;;;;;;;;;;;;;3.54;99.97;98003.01;107807;1261;124693;-73
2023/01/10 08:55:14;;;;;;;;;;;;;;;3.56;99.97;98006.27;106666;1281;22538;-73
2023/01/10 08:57:40;;;;;;;;;;;;;;;3.56;99.83;98009.63;106642;1281;24204;-74
2023/01/10 09:00:08;;;;;;;;;;;;;;;3.57;99.53;98014.92;106668;1276;124638;-73
2023/01/10 09:02:34;;;;;;;;;;;;;;;3.58;99.28;98022.84;106757;1263;24302;-73
2023/01/10 09:05:01;;;;;;;;;;;;;;;3.58;99.13;98031.77;106684;1278;124333;-73
2023/01/10 09:07:28;;;;;;;;;;;;;;;3.58;98.87;98035.88;106738;1280;25338;-73
2023/01/10 09:09:55;;;;;;;;;;;;;;;3.60;98.84;98047.14;106694;1280;23846;-73
2023/01/10 09:15:07;;;;;;;;;;;;;;;3.60;99.00;98048.84;106836;1273;23890;-74
2023/01/10 09:17:34;;;;;;;;;;;;;;;3.63;99.30;98049.63;106774;1280;124339;-73
2023/01/10 09:20:05;;;;;;;;;;;;;;;3.66;99.44;98048.00;106599;1280;25299;-73
2023/01/10 09:22:31;;;;;;;;;;;;;;;3.69;99.49;98048.45;106508;1261;125377;-73
2023/01/10 09:24:58;;;;;;;;;;;;;;;3.71;99.85;98052.05;106575;1273;24265;-74
2023/01/10 09:27:25;;;;;;;;;;;;;;;3.74;99.83;98048.61;106596;1281;24252;-73
2023/01/10 09:29:52;;;;;;;;;;;;;;;3.77;99.89;98053.81;106481;1280;125086;-73
2023/01/10 09:32:19;;;;;;;;;;;;;;;3.80;99.93;98059.81;106603;1263;23396;-73
2023/01/10 09:34:45;;;;;;;;;;;;;;;3.84;99.83;98054.55;106409;1282;124502;-73
2023/01/10 09:37:12;;;;;;;;;;;;;;;3.87;99.95;98060.21;106898;1274;22542;-74
2023/01/10 09:39:39;;;;;;;;;;;;;;;3.91;99.97;98061.03;107527;1274;22515;-74
2023/01/10 09:42:30;;;;;;;;;;;;;;;3.94;99.99;98061.98;107787;1260;124333;-74
2023/01/10 09:45:05;;;;;;;;;;;;;;;4.01;100.00;98064.73;106695;1278;22694;-73
2023/01/10 09:47:53;;;;;;;;;;;;;;;4.04;99.90;98066.13;108077;1273;127380;-74
2023/01/10 09:50:38;;;;;;;;;;;;;;;4.05;99.45;98061.89;109189;1269;22555;-76
2023/01/10 09:53:09;;;;;;;;;;;;;;;4.07;99.30;98066.38;106675;1281;124799;-73
2023/01/10 09:55:37;;;;;;;;;;;;;;;4.07;99.30;98063.84;106706;1275;24234;-73
2023/01/10 09:58:11;;;;;;;;;;;;;;;4.07;99.15;98068.20;106570;1281;22522;-73
2023/01/10 10:00:48;;;;;;;;;;;;;;;4.05;98.93;98071.64;106560;1268;25423;-73
2023/01/10 10:03:31;;;;;;;;;;;;;;;4.03;98.70;98076.11;108682;1270;24203;-74
2023/01/10 10:05:59;;;;;;;;;;;;;;;3.99;98.69;98079.41;108762;1273;124742;-74
2023/01/10 10:08:26;;;;;;;;;;;;;;;3.97;98.43;98079.91;109470;1272;22531;-74
2023/01/10 10:10:52;;;;;;;;;;;;;;;3.96;98.17;98093.21;108901;1273;124501;-73
2023/01/10 10:13:19;;;;;;;;;;;;;;;3.93;97.62;98101.85;109476;1263;22544;-73
2023/01/10 10:15:58;;;;;;;;;;;;;;;3.91;96.96;98104.30;109035;1274;23361;-74
2023/01/10 10:18:38;;;;;;;;;;;;;;;3.91;97.52;98105.05;108406;1275;124386;-74
2023/01/10 10:21:23;;;;;;;;;;;;;;;3.92;97.64;98112.09;109397;1276;22542;-73
2023/01/10 10:23:59;;;;;;;;;;;;;;;3.93;97.82;98114.61;108527;1272;124336;-74
2023/01/10 10:26:41;;;;;;;;;;;;;;;3.96;98.13;98116.38;108943;1273;22514;-74
2023/01/10 10:29:19;;;;;;;;;;;;;;;3.98;98.25;98119.25;106688;1273;125156;-75
2023/01/10 10:31:46;;;;;;;;;;;;;;;4.01;98.29;98112.52;108853;1277;22999;-74
2023/01/10 10:34:31;;;;;;;;;;;;;;;4.02;98.44;98116.88;107813;1272;22571;-74
2023/01/10 10:37:01;;;;;;;;;;;;;;;4.00;97.79;98122.27;107842;1275;22519;-74
2023/01/10 10:39:37;;;;;;;;;;;;;;;3.99;97.83;98125.71;108168;1276;24435;-73
2023/01/10 10:42:10;;;;;;;;;;;;;;;3.96;97.19;98123.52;107003;1275;124545;-73
2023/01/10 10:44:37;;;;;;;;;;;;;;;3.92;96.70;98124.23;107118;1263;23451;-74
2023/01/10 10:47:10;;;;;;;;;;;;;;;3.89;96.84;98121.74;106965;1270;124451;-75
2023/01/10 10:49:41;;;;;;;;;;;;;;;3.86;96.55;98128.88;107944;1267;22565;-74
2023/01/10 10:52:13;;;;;;;;;;;;;;;3.84;96.91;98132.68;108884;1267;22515;-73
2023/01/10 10:54:40;;;;;;;;;;;;;;;3.85;97.57;98132.85;106927;1272;124855;-74
2023/01/10 10:57:09;;;;;;;;;;;;;;;3.85;97.52;98135.80;108376;1275;23320;-73
2023/01/10 10:59:36;;;;;;;;;;;;;;;3.85;97.72;98140.94;107074;1282;124527;-74
2023/01/10 11:02:10;;;;;;;;;;;;;;;3.83;97.46;98140.66;106808;1267;24292;-74
2023/01/10 11:04:37;;;;;;;;;;;;;;;3.80;97.19;98142.27;106900;1262;124567;-73
2023/01/10 11:07:03;;;;;;;;;;;;;;;3.77;97.42;98146.30;106936;1280;25261;-73
2023/01/10 11:11:58;;;;;;;;;;;;;;;3.71;97.10;98154.00;106623;1277;124567;-73
2023/01/10 11:14:46;;;;;;;;;;;;;;;3.69;97.35;98155.01;106848;1272;22591;-73
2023/01/10 11:17:17;;;;;;;;;;;;;;;3.68;97.42;98161.64;107532;1265;125553;-74
2023/01/10 11:19:53;;;;;;;;;;;;;;;3.67;97.47;98167.97;106739;1281;22630;-74
2023/01/10 11:22:20;;;;;;;;;;;;;;;3.65;97.12;98174.67;107167;1275;124644;-74
2023/01/10 11:24:55;;;;;;;;;;;;;;;3.63;97.10;98177.96;107630;1263;22558;-74
2023/01/10 11:27:24;;;;;;;;;;;;;;;3.64;97.35;98176.05;107082;1273;23877;-74
2023/01/10 11:29:51;;;;;;;;;;;;;;;3.64;97.33;98179.28;107458;1267;124329;-74
2023/01/10 11:32:19;;;;;;;;;;;;;;;3.64;97.18;98184.88;107023;1269;23361;-73
2023/01/10 11:34:49;;;;;;;;;;;;;;;3.64;97.48;98186.16;106626;1269;124640;-73
2023/01/10 11:37:15;;;;;;;;;;;;;;;3.63;97.59;98188.91;107052;1280;22498;-73
2023/01/10 11:39:42;;;;;;;;;;;;;;;3.63;97.47;98195.40;106661;1280;24382;-73
2023/01/10 11:42:28;;;;;;;;;;;;;;;3.62;97.72;98200.16;106557;1280;125265;-75
2023/01/10 11:45:13;;;;;;;;;;;;;;;3.60;97.60;98201.27;106824;1267;22703;-73
2023/01/10 11:47:42;;;;;;;;;;;;;;;3.60;97.85;98208.11;106428;1280;124342;-73
2023/01/10 11:50:09;;;;;;;;;;;;;;;3.59;98.01;98213.09;106652;1280;23873;-73
2023/01/10 11:52:42;;;;;;;;;;;;;;;3.59;98.12;98215.40;106548;1280;124440;-73
2023/01/10 11:55:09;;;;;;;;;;;;;;;3.59;98.47;98217.77;106609;1271;22517;-74
2023/01/10 11:57:36;;;;;;;;;;;;;;;3.61;98.62;98221.61;106636;1277;24254;-74
2023/01/10 12:00:05;;;;;;;;;;;;;;;3.61;98.66;98227.04;106858;1277;124769;-73
2023/01/10 12:02:41;;;;;;;;;;;;;;;3.61;98.64;98230.61;106655;1281;22623;-73
2023/01/10 12:05:16;;;;;;;;;;;;;;;3.61;98.70;98235.45;107567;1261;124279;-74
2023/01/10 12:07:56;;;;;;;;;;;;;;;3.59;98.82;98236.73;107112;1273;22505;-74
2023/01/10 12:10:25;;;;;;;;;;;;;;;3.60;98.76;98244.06;106994;1278;124700;-75
2023/01/10 12:12:57;;;;;;;;;;;;;;;3.58;98.65;98247.29;106741;1280;22525;-73
2023/01/10 12:15:25;;;;;;;;;;;;;;;3.57;98.70;98248.37;106881;1272;25011;-75
2023/01/10 12:17:55;;;;;;;;;;;;;;;3.57;98.84;98258.98;106716;1270;124339;-74
2023/01/10 12:20:22;;;;;;;;;;;;;;;3.58;99.19;98261.55;107200;1279;22515;-73
2023/01/10 12:22:53;;;;;;;;;;;;;;;3.59;99.24;98264.45;106720;1273;126024;-74
2023/01/10 12:25:21;;;;;;;;;;;;;;;3.60;99.28;98270.41;106845;1262;22636;-73
2023/01/10 12:27:51;;;;;;;;;;;;;;;3.59;99.13;98279.48;107448;1276;22544;-74
2023/01/10 12:30:24;;;;;;;;;;;;;;;3.60;99.47;98284.63;108332;1270;124870;-74
2023/01/10 12:32:51;;;;;;;;;;;;;;;3.61;99.23;98287.69;106745;1273;22530;-73
2023/01/10 12:35:24;;;;;;;;;;;;;;;3.61;99.15;98294.56;107189;1270;124324;-74
2023/01/10 12:37:57;;;;;;;;;;;;;;;3.60;99.06;98300.98;106953;1277;23350;-74
2023/01/10 12:40:29;;;;;;;;;;;;;;;3.59;99.12;98300.65;107534;1277;125418;-74
2023/01/10 12:45:52;;;;;;;;;;;;;;;3.62;99.33;98304.84;107050;1257;22508;-74
2023/01/10 12:48:25;;;;;;;;;;;;;;;3.64;99.37;98306.59;107466;1280;124608;-73
2023/01/10 12:50:59;;;;;;;;;;;;;;;3.67;99.52;98309.98;106714;1269;22535;-73
2023/01/10 12:53:42;;;;;;;;;;;;;;;3.70;99.65;98311.15;107952;1281;124850;-73
2023/01/10 12:56:12;;;;;;;;;;;;;;;3.73;99.80;98308.21;107652;1257;22942;-74
2023/01/10 12:58:43;;;;;;;;;;;;;;;3.76;99.73;98307.98;108004;1280;124631;-74
2023/01/10 13:01:13;;;;;;;;;;;;;;;3.77;99.69;98309.55;106895;1269;22491;-73
2023/01/10 13:03:41;;;;;;;;;;;;;;;3.79;99.79;98311.22;107056;1272;23327;-74
2023/01/10 13:06:15;;;;;;;;;;;;;;;3.81;99.83;98318.47;107390;1257;124402;-74
2023/01/10 13:08:42;;;;;;;;;;;;;;;3.80;99.83;98314.73;106962;1276;22507;-74